createdAt,value
2022-10-19T00:00:11.071Z,101318.23
2022-10-19T00:01:20.064Z,101316.43
2022-10-19T00:02:11.109Z,101316.95
2022-10-19T00:03:11.063Z,101317.07
2022-10-19T00:04:11.066Z,101316.45
2022-10-19T00:05:11.063Z,101311.72
2022-10-19T00:06:20.064Z,101305.88
2022-10-19T00:07:11.061Z,101303.30
2022-10-19T00:08:11.066Z,101296.74
2022-10-19T00:09:12.071Z,101293.56
2022-10-19T00:10:11.065Z,101295.73
2022-10-19T00:11:11.060Z,101297.31
2022-10-19T00:12:11.067Z,101297.47
2022-10-19T00:13:11.067Z,101302.03
2022-10-19T00:14:14.110Z,101302.79
2022-10-19T00:15:11.063Z,101306.72
2022-10-19T00:16:15.066Z,101302.88
2022-10-19T00:17:11.062Z,101299.06
2022-10-19T00:18:11.066Z,101306.14
2022-10-19T00:19:14.072Z,101306.68
2022-10-19T00:20:11.066Z,101300.40
2022-10-19T00:21:12.054Z,101298.52
2022-10-19T00:22:13.179Z,101294.92
2022-10-19T00:23:11.066Z,101291.79
2022-10-19T00:24:11.060Z,101287.01
2022-10-19T00:25:11.060Z,101287.85
2022-10-19T00:26:11.066Z,101288.15
2022-10-19T00:27:11.059Z,101285.34
2022-10-19T00:28:11.056Z,101284.65
2022-10-19T00:29:11.149Z,101286.43
2022-10-19T00:30:11.059Z,101283.31
2022-10-19T00:31:11.062Z,101285.73
2022-10-19T00:32:11.060Z,101278.12
2022-10-19T00:33:11.061Z,101277.24
2022-10-19T00:34:11.058Z,101280.22
2022-10-19T00:35:11.063Z,101282.43
2022-10-19T00:36:18.061Z,101277.32
2022-10-19T00:37:11.059Z,101273.89
2022-10-19T00:38:11.057Z,101274.17
2022-10-19T00:39:14.063Z,101274.53
2022-10-19T00:40:11.061Z,101271.90
2022-10-19T00:41:11.058Z,101273.77
2022-10-19T00:42:13.060Z,101273.77
2022-10-19T00:43:18.063Z,101273.43
2022-10-19T00:44:19.062Z,101271.14
2022-10-19T00:45:15.062Z,101267.40
2022-10-19T00:46:15.064Z,101263.63
2022-10-19T00:47:11.062Z,101262.79
2022-10-19T00:48:12.062Z,101263.73
2022-10-19T00:49:18.058Z,101265.81
2022-10-19T00:50:11.062Z,101270.69
2022-10-19T00:51:11.071Z,101268.14
2022-10-19T00:52:12.060Z,101265.83
2022-10-19T00:53:11.061Z,101262.39
2022-10-19T00:54:11.069Z,101259.39
2022-10-19T00:55:11.059Z,101261.14
2022-10-19T00:56:13.063Z,101258.67
2022-10-19T00:57:11.064Z,101257.55
2022-10-19T00:58:11.064Z,101259.86
2022-10-19T00:59:11.059Z,101258.19
2022-10-19T01:00:11.064Z,101255.90
2022-10-19T01:01:12.115Z,101259.27
2022-10-19T01:02:11.060Z,101258.78
2022-10-19T01:03:11.061Z,101257.46
2022-10-19T01:04:11.063Z,101257.25
2022-10-19T01:05:11.060Z,101251.66
2022-10-19T01:06:11.069Z,101252.05
2022-10-19T01:07:11.073Z,101248.06
2022-10-19T01:08:11.070Z,101247.19
2022-10-19T01:09:11.064Z,101242.80
2022-10-19T01:10:11.070Z,101243.79
2022-10-19T01:11:19.061Z,101239.09
2022-10-19T01:12:19.060Z,101234.43
2022-10-19T01:13:23.065Z,101233.45
2022-10-19T01:14:19.064Z,101230.68
2022-10-19T01:15:23.073Z,101225.16
2022-10-19T01:16:18.066Z,101232.00
2022-10-19T01:17:19.064Z,101223.74
2022-10-19T01:18:21.061Z,101230.61
2022-10-19T01:19:21.060Z,101230.46
2022-10-19T01:20:19.067Z,101236.73
2022-10-19T01:21:18.063Z,101233.41
2022-10-19T01:22:21.066Z,101236.00
2022-10-19T01:23:19.065Z,101238.04
2022-10-19T01:24:19.059Z,101241.66
2022-10-19T01:25:19.054Z,101247.64
2022-10-19T01:26:21.058Z,101252.01
2022-10-19T01:27:21.066Z,101247.84
2022-10-19T01:28:19.061Z,101245.22
2022-10-19T01:29:19.059Z,101246.98
2022-10-19T01:30:16.084Z,101246.73
2022-10-19T01:31:19.058Z,101238.14
2022-10-19T01:32:16.067Z,101236.68
2022-10-19T01:33:19.061Z,101227.85
2022-10-19T01:34:19.057Z,101226.99
2022-10-19T01:35:18.063Z,101228.39
2022-10-19T01:36:19.061Z,101223.64
2022-10-19T01:37:21.060Z,101223.21
2022-10-19T01:38:19.060Z,101222.62
2022-10-19T01:39:16.061Z,101220.32
2022-10-19T01:40:20.060Z,101215.87
2022-10-19T01:41:17.064Z,101219.40
2022-10-19T01:42:19.061Z,101220.66
2022-10-19T01:43:21.058Z,101221.66
2022-10-19T01:44:19.070Z,101221.19
2022-10-19T01:45:19.060Z,101221.82
2022-10-19T01:46:20.066Z,101225.99
2022-10-19T01:47:18.063Z,101227.54
2022-10-19T01:48:17.060Z,101226.11
2022-10-19T01:49:19.057Z,101229.90
2022-10-19T01:50:17.061Z,101233.80
2022-10-19T01:51:16.070Z,101232.65
2022-10-19T01:52:12.064Z,101236.50
2022-10-19T01:53:11.060Z,101239.90
2022-10-19T01:54:13.064Z,101236.86
2022-10-19T01:55:13.063Z,101234.95
2022-10-19T01:56:11.064Z,101230.79
2022-10-19T01:57:12.062Z,101233.41
2022-10-19T01:58:13.071Z,101225.20
2022-10-19T01:59:11.064Z,101227.71
2022-10-19T02:00:12.065Z,101231.18
2022-10-19T02:01:13.118Z,101232.48
2022-10-19T02:02:11.064Z,101231.97
2022-10-19T02:03:11.060Z,101232.09
2022-10-19T02:04:11.068Z,101230.26
2022-10-19T02:05:11.063Z,101233.65
2022-10-19T02:06:11.061Z,101230.81
2022-10-19T02:07:11.065Z,101234.22
2022-10-19T02:08:15.068Z,101229.93
2022-10-19T02:09:11.059Z,101231.50
2022-10-19T02:10:11.135Z,101228.10
2022-10-19T02:11:11.070Z,101222.17
2022-10-19T02:12:11.066Z,101213.06
2022-10-19T02:13:11.066Z,101204.94
2022-10-19T02:14:14.066Z,101209.54
2022-10-19T02:15:14.063Z,101210.84
2022-10-19T02:16:18.063Z,101211.27
2022-10-19T02:17:12.067Z,101209.98
2022-10-19T02:18:13.066Z,101212.71
2022-10-19T02:19:13.111Z,101208.60
2022-10-19T02:20:11.065Z,101212.70
2022-10-19T02:21:11.065Z,101210.81
2022-10-19T02:22:11.062Z,101210.67
2022-10-19T02:23:11.060Z,101219.85
2022-10-19T02:24:11.066Z,101214.82
2022-10-19T02:25:11.062Z,101214.30
2022-10-19T02:26:11.056Z,101210.64
2022-10-19T02:27:11.063Z,101212.96
2022-10-19T02:28:11.065Z,101216.44
2022-10-19T02:29:11.059Z,101215.91
2022-10-19T02:30:11.060Z,101208.36
2022-10-19T02:31:11.061Z,101207.14
2022-10-19T02:32:11.057Z,101207.44
2022-10-19T02:33:11.059Z,101207.83
2022-10-19T02:34:11.061Z,101200.05
2022-10-19T02:35:11.057Z,101199.13
2022-10-19T02:36:11.065Z,101195.79
2022-10-19T02:37:11.061Z,101196.92
2022-10-19T02:38:13.058Z,101198.51
2022-10-19T02:39:11.063Z,101197.88
2022-10-19T02:40:11.062Z,101200.42
2022-10-19T02:41:21.060Z,101196.05
2022-10-19T02:42:19.058Z,101189.70
2022-10-19T02:43:14.064Z,101186.41
2022-10-19T02:44:19.067Z,101185.73
2022-10-19T02:45:18.060Z,101189.19
2022-10-19T02:46:19.060Z,101190.61
2022-10-19T02:47:18.062Z,101189.27
2022-10-19T02:48:17.059Z,101186.77
2022-10-19T02:49:11.062Z,101187.41
2022-10-19T02:50:11.065Z,101183.71
2022-10-19T02:51:19.057Z,101185.72
2022-10-19T02:52:11.061Z,101186.27
2022-10-19T02:53:11.067Z,101188.83
2022-10-19T02:54:11.059Z,101185.95
2022-10-19T02:55:11.064Z,101182.56
2022-10-19T02:56:11.064Z,101181.78
2022-10-19T02:57:15.060Z,101178.75
2022-10-19T02:58:11.070Z,101179.95
2022-10-19T02:59:11.064Z,101174.49
2022-10-19T03:00:11.064Z,101171.80
2022-10-19T03:01:11.159Z,101169.66
2022-10-19T03:02:11.062Z,101165.55
2022-10-19T03:03:11.062Z,101172.33
2022-10-19T03:04:11.059Z,101168.03
2022-10-19T03:05:11.062Z,101169.95
2022-10-19T03:06:11.063Z,101169.30
2022-10-19T03:07:14.060Z,101166.37
2022-10-19T03:08:11.062Z,101166.51
2022-10-19T03:09:11.070Z,101159.34
2022-10-19T03:10:11.060Z,101156.92
2022-10-19T03:11:11.064Z,101154.81
2022-10-19T03:12:11.065Z,101155.23
2022-10-19T03:13:11.064Z,101152.58
2022-10-19T03:14:11.063Z,101146.69
2022-10-19T03:15:14.064Z,101145.94
2022-10-19T03:16:11.072Z,101138.99
2022-10-19T03:17:11.061Z,101134.64
2022-10-19T03:18:11.065Z,101133.18
2022-10-19T03:19:11.066Z,101128.12
2022-10-19T03:20:11.064Z,101127.71
2022-10-19T03:21:14.056Z,101123.76
2022-10-19T03:22:11.058Z,101128.21
2022-10-19T03:23:11.070Z,101132.25
2022-10-19T03:24:11.059Z,101132.96
2022-10-19T03:25:11.061Z,101131.00
2022-10-19T03:26:12.417Z,101135.31
2022-10-19T03:27:11.060Z,101136.27
2022-10-19T03:28:11.058Z,101133.21
2022-10-19T03:29:11.057Z,101132.18
2022-10-19T03:30:11.062Z,101136.11
2022-10-19T03:31:11.056Z,101137.98
2022-10-19T03:32:11.062Z,101137.34
2022-10-19T03:33:11.067Z,101142.44
2022-10-19T03:34:11.059Z,101141.62
2022-10-19T03:35:11.055Z,101145.86
2022-10-19T03:36:19.066Z,101147.53
2022-10-19T03:37:11.066Z,101147.36
2022-10-19T03:38:11.057Z,101148.51
2022-10-19T03:39:12.062Z,101143.87
2022-10-19T03:40:11.068Z,101141.90
2022-10-19T03:41:11.061Z,101141.82
2022-10-19T03:42:11.056Z,101137.71
2022-10-19T03:43:11.069Z,101137.43
2022-10-19T03:44:11.062Z,101134.36
2022-10-19T03:45:11.056Z,101129.02
2022-10-19T03:46:11.061Z,101125.67
2022-10-19T03:47:11.060Z,101124.30
2022-10-19T03:48:11.066Z,101117.90
2022-10-19T03:49:11.165Z,101124.16
2022-10-19T03:50:11.076Z,101113.26
2022-10-19T03:51:12.120Z,101113.04
2022-10-19T03:52:11.062Z,101116.20
2022-10-19T03:53:11.069Z,101107.88
2022-10-19T03:54:13.061Z,101111.79
2022-10-19T03:55:11.062Z,101115.62
2022-10-19T03:56:13.071Z,101113.78
2022-10-19T03:57:11.060Z,101116.49
2022-10-19T03:58:11.061Z,101118.62
2022-10-19T03:59:12.062Z,101113.10
2022-10-19T04:00:11.063Z,101109.11
2022-10-19T04:01:21.164Z,101115.09
2022-10-19T04:02:11.058Z,101114.59
2022-10-19T04:03:11.064Z,101111.98
2022-10-19T04:04:15.067Z,101110.43
2022-10-19T04:05:11.059Z,101108.65
2022-10-19T04:06:18.183Z,101105.91
2022-10-19T04:07:13.895Z,101107.50
2022-10-19T04:08:11.062Z,101102.73
2022-10-19T04:09:12.060Z,101102.18
2022-10-19T04:10:11.062Z,101104.27
2022-10-19T04:11:13.062Z,101093.98
2022-10-19T04:12:11.064Z,101091.26
2022-10-19T04:13:11.065Z,101092.89
2022-10-19T04:14:15.998Z,101092.06
2022-10-19T04:15:13.148Z,101092.65
2022-10-19T04:16:13.064Z,101094.59
2022-10-19T04:17:11.064Z,101092.45
2022-10-19T04:18:11.061Z,101091.16
2022-10-19T04:19:13.071Z,101092.36
2022-10-19T04:20:11.064Z,101093.14
2022-10-19T04:21:19.056Z,101092.59
2022-10-19T04:22:11.063Z,101087.29
2022-10-19T04:23:11.097Z,101092.91
2022-10-19T04:24:14.060Z,101079.38
2022-10-19T04:25:11.065Z,101094.21
2022-10-19T04:26:11.068Z,101092.02
2022-10-19T04:27:11.061Z,101088.15
2022-10-19T04:28:11.057Z,101084.73
2022-10-19T04:29:11.107Z,101088.64
2022-10-19T04:30:11.070Z,101093.49
2022-10-19T04:31:11.059Z,101093.66
2022-10-19T04:32:11.060Z,101094.09
2022-10-19T04:33:11.062Z,101090.66
2022-10-19T04:34:11.058Z,101089.87
2022-10-19T04:35:11.059Z,101093.82
2022-10-19T04:36:11.061Z,101090.51
2022-10-19T04:37:11.061Z,101094.10
2022-10-19T04:38:11.063Z,101087.64
2022-10-19T04:39:11.060Z,101096.37
2022-10-19T04:40:14.907Z,101087.54
2022-10-19T04:41:14.061Z,101093.71
2022-10-19T04:42:11.067Z,101095.73
2022-10-19T04:43:11.060Z,101094.24
2022-10-19T04:44:12.137Z,101095.97
2022-10-19T04:45:11.068Z,101093.51
2022-10-19T04:46:11.059Z,101091.04
2022-10-19T04:47:11.065Z,101087.44
2022-10-19T04:48:12.698Z,101083.79
2022-10-19T04:49:11.061Z,101084.98
2022-10-19T04:50:11.062Z,101078.04
2022-10-19T04:51:11.069Z,101069.24
2022-10-19T04:52:11.062Z,101070.80
2022-10-19T04:53:11.102Z,101066.83
2022-10-19T04:54:11.070Z,101062.17
2022-10-19T04:55:11.065Z,101056.86
2022-10-19T04:56:14.065Z,101057.13
2022-10-19T04:57:11.062Z,101054.11
2022-10-19T04:58:11.064Z,101055.58
2022-10-19T04:59:11.061Z,101056.33
2022-10-19T05:00:11.063Z,101055.20
2022-10-19T05:01:17.094Z,101057.54
2022-10-19T05:02:11.064Z,101056.73
2022-10-19T05:03:11.065Z,101054.54
2022-10-19T05:04:11.070Z,101047.73
2022-10-19T05:05:11.065Z,101048.52
2022-10-19T05:06:11.062Z,101044.37
2022-10-19T05:07:11.065Z,101046.85
2022-10-19T05:08:11.064Z,101050.46
2022-10-19T05:09:11.059Z,101051.04
2022-10-19T05:10:11.077Z,101040.82
2022-10-19T05:11:14.065Z,101048.65
2022-10-19T05:12:11.062Z,101038.79
2022-10-19T05:13:11.065Z,101036.00
2022-10-19T05:14:11.067Z,101038.08
2022-10-19T05:15:11.061Z,101038.02
2022-10-19T05:16:13.075Z,101040.02
2022-10-19T05:17:11.065Z,101040.89
2022-10-19T05:18:11.067Z,101043.55
2022-10-19T05:19:14.078Z,101044.20
2022-10-19T05:20:11.067Z,101043.43
2022-10-19T05:21:13.063Z,101042.50
2022-10-19T05:22:11.064Z,101045.24
2022-10-19T05:23:11.068Z,101041.89
2022-10-19T05:24:13.060Z,101041.86
2022-10-19T05:25:11.062Z,101049.24
2022-10-19T05:26:15.068Z,101044.38
2022-10-19T05:27:11.061Z,101043.76
2022-10-19T05:28:11.059Z,101043.52
2022-10-19T05:29:12.101Z,101045.96
2022-10-19T05:30:11.068Z,101049.36
2022-10-19T05:31:15.060Z,101046.18
2022-10-19T05:32:11.058Z,101048.18
2022-10-19T05:33:11.065Z,101045.51
2022-10-19T05:34:11.071Z,101041.76
2022-10-19T05:35:11.058Z,101043.78
2022-10-19T05:36:17.063Z,101039.56
2022-10-19T05:37:11.067Z,101031.80
2022-10-19T05:38:11.061Z,101029.95
2022-10-19T05:39:13.167Z,101034.55
2022-10-19T05:40:11.070Z,101028.19
2022-10-19T05:41:11.064Z,101027.60
2022-10-19T05:42:11.065Z,101026.53
2022-10-19T05:43:11.071Z,101022.91
2022-10-19T05:44:14.061Z,101027.26
2022-10-19T05:45:11.066Z,101028.02
2022-10-19T05:46:11.070Z,101030.88
2022-10-19T05:47:11.064Z,101025.45
2022-10-19T05:48:11.065Z,101025.96
2022-10-19T05:49:11.072Z,101025.24
2022-10-19T05:50:11.063Z,101021.89
2022-10-19T05:51:12.060Z,101019.38
2022-10-19T05:52:11.066Z,101013.86
2022-10-19T05:53:11.063Z,101017.92
2022-10-19T05:54:11.063Z,101011.29
2022-10-19T05:55:11.063Z,101002.83
2022-10-19T05:56:13.063Z,101000.02
2022-10-19T05:57:11.064Z,100997.68
2022-10-19T05:58:11.064Z,100997.10
2022-10-19T05:59:14.099Z,100989.28
2022-10-19T06:00:11.063Z,100988.08
2022-10-19T06:01:11.065Z,100985.42
2022-10-19T06:02:13.130Z,100983.95
2022-10-19T06:03:11.066Z,100975.71
2022-10-19T06:04:11.134Z,100970.94
2022-10-19T06:05:11.069Z,100966.68
2022-10-19T06:06:11.065Z,100966.46
2022-10-19T06:07:11.064Z,100961.03
2022-10-19T06:08:11.065Z,100960.20
2022-10-19T06:09:11.066Z,100954.41
2022-10-19T06:10:11.063Z,100963.81
2022-10-19T06:11:14.068Z,100965.32
2022-10-19T06:12:11.066Z,100969.20
2022-10-19T06:13:11.065Z,100966.81
2022-10-19T06:14:12.065Z,100969.25
2022-10-19T06:15:11.069Z,100977.93
2022-10-19T06:16:11.064Z,100975.57
2022-10-19T06:17:11.065Z,100971.63
2022-10-19T06:18:11.067Z,100975.70
2022-10-19T06:19:11.069Z,100973.19
2022-10-19T06:20:11.067Z,100979.98
2022-10-19T06:21:13.069Z,100978.27
2022-10-19T06:22:11.061Z,100976.94
2022-10-19T06:23:11.058Z,100977.52
2022-10-19T06:24:12.062Z,100976.28
2022-10-19T06:25:11.061Z,100973.12
2022-10-19T06:26:11.059Z,100971.73
2022-10-19T06:27:11.092Z,100962.82
2022-10-19T06:28:11.061Z,100962.41
2022-10-19T06:29:11.059Z,100958.58
2022-10-19T06:30:11.061Z,100951.42
2022-10-19T06:31:11.101Z,100956.41
2022-10-19T06:32:11.060Z,100950.57
2022-10-19T06:33:11.111Z,100951.46
2022-10-19T06:34:11.119Z,100946.43
2022-10-19T06:35:11.062Z,100940.61
2022-10-19T06:36:15.059Z,100949.28
2022-10-19T06:37:11.061Z,100944.38
2022-10-19T06:38:11.063Z,100940.98
2022-10-19T06:39:11.059Z,100941.61
2022-10-19T06:40:11.098Z,100943.09
2022-10-19T06:41:11.069Z,100938.78
2022-10-19T06:42:11.060Z,100936.96
2022-10-19T06:43:11.065Z,100936.08
2022-10-19T06:44:11.072Z,100928.58
2022-10-19T06:45:11.062Z,100929.81
2022-10-19T06:46:11.059Z,100926.73
2022-10-19T06:47:11.069Z,100924.72
2022-10-19T06:48:11.066Z,100924.38
2022-10-19T06:49:14.060Z,100927.28
2022-10-19T06:50:11.066Z,100927.19
2022-10-19T06:51:11.064Z,100930.23
2022-10-19T06:52:11.066Z,100925.27
2022-10-19T06:53:11.063Z,100930.29
2022-10-19T06:54:11.065Z,100927.22
2022-10-19T06:55:11.064Z,100930.23
2022-10-19T06:56:11.065Z,100930.37
2022-10-19T06:57:11.095Z,100927.86
2022-10-19T06:58:11.063Z,100924.04
2022-10-19T06:59:11.066Z,100926.66
2022-10-19T07:00:11.066Z,100922.51
2022-10-19T07:01:11.120Z,100926.30
2022-10-19T07:02:12.065Z,100926.80
2022-10-19T07:03:11.072Z,100921.72
2022-10-19T07:04:11.066Z,100922.89
2022-10-19T07:05:11.066Z,100914.25
2022-10-19T07:06:11.073Z,100917.45
2022-10-19T07:07:11.067Z,100918.50
2022-10-19T07:08:11.162Z,100919.52
2022-10-19T07:09:11.069Z,100914.59
2022-10-19T07:10:11.065Z,100908.66
2022-10-19T07:11:11.061Z,100912.81
2022-10-19T07:12:11.068Z,100913.00
2022-10-19T07:13:11.083Z,100910.00
2022-10-19T07:14:11.061Z,100916.18
2022-10-19T07:15:11.066Z,100919.27
2022-10-19T07:16:15.995Z,100916.31
2022-10-19T07:17:13.934Z,100915.48
2022-10-19T07:18:11.067Z,100919.78
2022-10-19T07:19:11.072Z,100928.82
2022-10-19T07:20:11.063Z,100924.66
2022-10-19T07:21:14.059Z,100923.69
2022-10-19T07:22:14.429Z,100925.77
2022-10-19T07:23:13.092Z,100928.80
2022-10-19T07:24:11.070Z,100925.06
2022-10-19T07:25:11.059Z,100925.71
2022-10-19T07:26:12.060Z,100925.89
2022-10-19T07:27:11.074Z,100927.67
2022-10-19T07:28:11.062Z,100923.31
2022-10-19T07:29:11.066Z,100926.23
2022-10-19T07:30:11.060Z,100928.38
2022-10-19T07:31:11.068Z,100926.24
2022-10-19T07:32:11.067Z,100920.70
2022-10-19T07:33:11.116Z,100923.02
2022-10-19T07:34:13.070Z,100922.14
2022-10-19T07:35:11.062Z,100921.26
2022-10-19T07:36:11.060Z,100917.49
2022-10-19T07:37:11.127Z,100917.57
2022-10-19T07:38:11.064Z,100924.27
2022-10-19T07:39:11.060Z,100920.52
2022-10-19T07:40:11.068Z,100920.91
2022-10-19T07:41:13.059Z,100919.28
2022-10-19T07:42:11.137Z,100926.24
2022-10-19T07:43:11.059Z,100921.02
2022-10-19T07:44:13.412Z,100912.50
2022-10-19T07:45:11.070Z,100909.76
2022-10-19T07:46:17.060Z,100909.02
2022-10-19T07:47:11.059Z,100909.82
2022-10-19T07:48:11.059Z,100910.04
2022-10-19T07:49:12.061Z,100906.07
2022-10-19T07:50:11.059Z,100910.55
2022-10-19T07:51:11.063Z,100914.77
2022-10-19T07:52:11.069Z,100909.64
2022-10-19T07:53:11.060Z,100910.29
2022-10-19T07:54:11.063Z,100912.60
2022-10-19T07:55:11.069Z,100917.64
2022-10-19T07:56:11.063Z,100913.32
2022-10-19T07:57:12.064Z,100909.86
2022-10-19T07:58:11.069Z,100908.79
2022-10-19T07:59:11.061Z,100906.99
2022-10-19T08:00:11.067Z,100913.24
2022-10-19T08:01:16.099Z,100910.29
2022-10-19T08:02:16.125Z,100909.26
2022-10-19T08:03:57.140Z,100908.65
2022-10-19T08:04:48.997Z,100913.83
2022-10-19T08:05:13.381Z,100911.82
2022-10-19T08:06:11.067Z,100913.11
2022-10-19T08:07:11.067Z,100911.22
2022-10-19T08:08:11.076Z,100914.38
2022-10-19T08:09:15.652Z,100912.17
2022-10-19T08:10:13.099Z,100910.45
2022-10-19T08:11:11.061Z,100909.39
2022-10-19T08:12:14.770Z,100903.82
2022-10-19T08:13:11.063Z,100899.31
2022-10-19T08:14:11.063Z,100902.14
2022-10-19T08:15:11.063Z,100903.10
2022-10-19T08:16:19.062Z,100901.47
2022-10-19T08:17:12.122Z,100900.83
2022-10-19T08:18:11.070Z,100899.87
2022-10-19T08:19:11.063Z,100904.61
2022-10-19T08:20:11.065Z,100906.18
2022-10-19T08:21:11.065Z,100912.97
2022-10-19T08:22:11.060Z,100914.75
2022-10-19T08:23:11.055Z,100910.45
2022-10-19T08:24:11.068Z,100909.38
2022-10-19T08:25:11.060Z,100910.37
2022-10-19T08:26:11.058Z,100910.47
2022-10-19T08:27:11.062Z,100911.56
2022-10-19T08:28:11.059Z,100910.67
2022-10-19T08:29:15.060Z,100909.63
2022-10-19T08:30:11.062Z,100906.99
2022-10-19T08:31:14.060Z,100909.55
2022-10-19T08:32:11.071Z,100909.05
2022-10-19T08:33:12.062Z,100910.83
2022-10-19T08:34:11.066Z,100910.17
2022-10-19T08:35:11.108Z,100909.94
2022-10-19T08:36:11.060Z,100911.04
2022-10-19T08:37:20.161Z,100914.14
2022-10-19T08:38:13.106Z,100913.16
2022-10-19T08:39:11.057Z,100908.34
2022-10-19T08:40:18.069Z,100905.52
2022-10-19T08:41:21.062Z,100907.48
2022-10-19T08:42:20.064Z,100899.83
2022-10-19T08:43:21.097Z,100898.38
2022-10-19T08:44:19.064Z,100891.31
2022-10-19T08:45:21.060Z,100890.16
2022-10-19T08:46:19.070Z,100884.49
2022-10-19T08:47:23.241Z,100890.92
2022-10-19T08:48:19.063Z,100883.64
2022-10-19T08:49:12.060Z,100890.24
2022-10-19T08:50:21.086Z,100886.00
2022-10-19T08:51:11.071Z,100883.35
2022-10-19T08:52:18.077Z,100882.12
2022-10-19T08:53:18.060Z,100879.94
2022-10-19T08:54:16.067Z,100885.57
2022-10-19T08:55:15.237Z,100880.94
2022-10-19T08:56:45.981Z,100873.70
2022-10-19T08:57:21.065Z,100880.36
2022-10-19T08:58:21.062Z,100876.97
2022-10-19T08:59:19.064Z,100879.53
2022-10-19T09:00:19.066Z,100870.77
2022-10-19T09:01:19.065Z,100873.12
2022-10-19T09:02:20.063Z,100869.27
2022-10-19T09:03:31.925Z,100865.21
2022-10-19T09:04:21.082Z,100862.15
2022-10-19T09:05:19.070Z,100863.82
2022-10-19T09:06:21.064Z,100859.16
2022-10-19T09:07:19.062Z,100856.81
2022-10-19T09:08:15.310Z,100854.00
2022-10-19T09:09:14.060Z,100858.19
2022-10-19T09:10:19.199Z,100855.99
2022-10-19T09:11:11.065Z,100855.37
2022-10-19T09:12:16.063Z,100858.99
2022-10-19T09:13:22.064Z,100859.69
2022-10-19T09:14:19.066Z,100856.83
2022-10-19T09:15:18.064Z,100850.35
2022-10-19T09:16:15.063Z,100856.45
2022-10-19T09:17:14.065Z,100859.38
2022-10-19T09:18:18.066Z,100856.57
2022-10-19T09:19:19.070Z,100857.82
2022-10-19T09:20:18.076Z,100853.52
2022-10-19T09:21:20.056Z,100862.52
2022-10-19T09:22:18.063Z,100861.43
2022-10-19T09:23:19.066Z,100859.63
2022-10-19T09:24:21.059Z,100853.52
2022-10-19T09:25:18.057Z,100856.16
2022-10-19T09:26:18.055Z,100850.49
2022-10-19T09:27:19.058Z,100852.85
2022-10-19T09:28:19.071Z,100849.09
2022-10-19T09:29:19.060Z,100853.27
2022-10-19T09:30:19.159Z,100846.19
2022-10-19T09:31:15.061Z,100846.45
2022-10-19T09:32:21.067Z,100847.31
2022-10-19T09:33:16.061Z,100838.21
2022-10-19T09:34:21.057Z,100834.72
2022-10-19T09:35:19.060Z,100833.26
2022-10-19T09:36:22.377Z,100835.19
2022-10-19T09:37:21.238Z,100834.60
2022-10-19T09:38:14.080Z,100834.81
2022-10-19T09:39:15.059Z,100846.14
2022-10-19T09:40:16.061Z,100833.53
2022-10-19T09:41:21.070Z,100833.45
2022-10-19T09:42:19.065Z,100831.90
2022-10-19T09:43:15.076Z,100831.96
2022-10-19T09:44:11.066Z,100833.38
2022-10-19T09:45:19.063Z,100827.31
2022-10-19T09:46:20.454Z,100826.77
2022-10-19T09:47:19.059Z,100823.53
2022-10-19T09:48:18.060Z,100824.91
2022-10-19T09:49:11.068Z,100824.66
2022-10-19T09:50:19.085Z,100823.02
2022-10-19T09:51:13.065Z,100822.20
2022-10-19T09:52:19.062Z,100822.41
2022-10-19T09:53:18.072Z,100815.31
2022-10-19T09:54:19.066Z,100821.74
2022-10-19T09:55:21.063Z,100822.05
2022-10-19T09:56:15.068Z,100814.76
2022-10-19T09:57:19.069Z,100811.96
2022-10-19T09:58:18.088Z,100809.83
2022-10-19T09:59:19.060Z,100803.92
2022-10-19T10:00:21.061Z,100803.44
2022-10-19T10:01:19.064Z,100811.38
2022-10-19T10:02:18.065Z,100808.40
2022-10-19T10:03:19.064Z,100806.44
2022-10-19T10:04:15.072Z,100806.88
2022-10-19T10:05:15.068Z,100806.86
2022-10-19T10:06:13.061Z,100810.91
2022-10-19T10:07:15.075Z,100815.50
2022-10-19T10:08:15.064Z,100809.26
2022-10-19T10:09:16.061Z,100813.47
2022-10-19T10:10:15.069Z,100814.74
2022-10-19T10:11:20.069Z,100810.78
2022-10-19T10:12:13.061Z,100802.08
2022-10-19T10:13:18.063Z,100816.07
2022-10-19T10:14:20.066Z,100801.94
2022-10-19T10:15:15.073Z,100801.88
2022-10-19T10:16:13.065Z,100792.58
2022-10-19T10:17:19.069Z,100794.45
2022-10-19T10:18:16.066Z,100786.49
2022-10-19T10:19:15.076Z,100784.75
2022-10-19T10:20:21.069Z,100794.95
2022-10-19T10:21:24.434Z,100786.35
2022-10-19T10:22:21.909Z,100788.32
2022-10-19T10:23:19.058Z,100781.83
2022-10-19T10:24:18.075Z,100790.85
2022-10-19T10:25:16.058Z,100790.29
2022-10-19T10:26:18.057Z,100793.38
2022-10-19T10:27:19.054Z,100795.62
2022-10-19T10:28:18.057Z,100782.98
2022-10-19T10:29:18.066Z,100795.25
2022-10-19T10:30:15.060Z,100794.80
2022-10-19T10:31:11.062Z,100787.72
2022-10-19T10:32:18.061Z,100790.25
2022-10-19T10:33:26.994Z,100793.86
2022-10-19T10:34:23.208Z,100790.41
2022-10-19T10:35:20.065Z,100787.91
2022-10-19T10:36:11.057Z,100792.26
2022-10-19T10:37:19.062Z,100789.66
2022-10-19T10:38:14.068Z,100793.68
2022-10-19T10:39:16.060Z,100801.77
2022-10-19T10:40:22.669Z,100792.27
2022-10-19T10:41:20.062Z,100792.54
2022-10-19T10:42:17.064Z,100793.41
2022-10-19T10:43:15.069Z,100795.02
2022-10-19T10:44:18.061Z,100784.91
2022-10-19T10:45:19.060Z,100783.52
2022-10-19T10:46:16.060Z,100789.23
2022-10-19T10:47:16.068Z,100786.81
2022-10-19T10:48:19.061Z,100786.25
2022-10-19T10:49:19.061Z,100788.11
2022-10-19T10:50:19.061Z,100780.30
2022-10-19T10:51:16.063Z,100779.51
2022-10-19T10:52:15.063Z,100777.72
2022-10-19T10:53:19.062Z,100773.76
2022-10-19T10:54:18.059Z,100772.29
2022-10-19T10:55:16.062Z,100772.43
2022-10-19T10:56:19.065Z,100763.86
2022-10-19T10:57:18.084Z,100770.35
2022-10-19T10:58:18.063Z,100766.34
2022-10-19T10:59:21.062Z,100763.30
2022-10-19T11:00:16.064Z,100764.47
2022-10-19T11:01:19.088Z,100762.60
2022-10-19T11:02:21.075Z,100760.02
2022-10-19T11:03:19.059Z,100750.71
2022-10-19T11:04:15.063Z,100749.61
2022-10-19T11:05:21.071Z,100752.59
2022-10-19T11:06:12.130Z,100748.88
2022-10-19T11:07:19.062Z,100739.33
2022-10-19T11:08:19.064Z,100737.14
2022-10-19T11:09:19.066Z,100734.91
2022-10-19T11:10:21.072Z,100730.05
2022-10-19T11:11:20.064Z,100720.51
2022-10-19T11:12:16.063Z,100726.75
2022-10-19T11:13:21.061Z,100720.46
2022-10-19T11:14:19.065Z,100714.14
2022-10-19T11:15:21.141Z,100715.45
2022-10-19T11:16:18.067Z,100714.33
2022-10-19T11:17:19.064Z,100715.83
2022-10-19T11:18:19.061Z,100701.90
2022-10-19T11:19:18.068Z,100709.55
2022-10-19T11:20:15.129Z,100706.33
2022-10-19T11:21:17.062Z,100707.98
2022-10-19T11:22:22.347Z,100709.07
2022-10-19T11:23:22.669Z,100708.75
2022-10-19T11:24:19.093Z,100708.41